Time;durP1;ratioP1;P1;durP2;ratioP2;P2;SDS_P1;SDS_P2;PMS_P1;PMS_P2;Temp;Humidity;BMP_temperature;BMP_pressure;BME280_temperature;BME280_humidity;BME280_pressure;Samples;Min_cycle;Max_cycle;Signal;HPM_P1;HPM_P2
2022/05/04 00:01:41;;;;;;;;;;;13.10;99.90;;;;;;5134723;27;19907;-76
2022/05/04 00:04:07;;;;;;;;;;;13.10;99.90;;;;;;5134616;27;19908;-76
2022/05/04 00:06:32;;;;;;;;;;;13.20;99.90;;;;;;5135236;27;19951;-76
2022/05/04 00:08:58;;;;;;;;;;;13.10;99.90;;;;;;5134232;27;20002;-76
2022/05/04 00:11:23;;;;;;;;;;;13.10;99.90;;;;;;5135229;27;19930;-77
2022/05/04 00:13:49;;;;;;;;;;;13.10;99.90;;;;;;5134374;27;19958;-76
2022/05/04 00:16:15;;;;;;;;;;;13.10;99.90;;;;;;5134609;27;19933;-76
2022/05/04 00:18:40;;;;;;;;;;;13.10;99.90;;;;;;5135372;27;19915;-76
2022/05/04 00:21:07;;;;;;;;;;;13.20;99.90;;;;;;5133936;27;20003;-76
2022/05/04 00:23:33;;;;;;;;;;;13.10;99.90;;;;;;5116321;27;19947;-76
2022/05/04 00:25:59;;;;;;;;;;;13.10;99.90;;;;;;5134246;27;19914;-76
2022/05/04 00:28:25;;;;;;;;;;;13.20;99.90;;;;;;5134577;27;19907;-76
2022/05/04 00:30:50;;;;;;;;;;;13.10;99.90;;;;;;5133802;27;20007;-75
2022/05/04 00:33:16;;;;;;;;;;;13.10;99.90;;;;;;5134513;27;19915;-76
2022/05/04 00:35:41;;;;;;;;;;;13.20;99.90;;;;;;5134333;27;19907;-76
2022/05/04 00:38:07;;;;;;;;;;;13.10;99.90;;;;;;5133958;27;19915;-76
2022/05/04 00:40:32;;;;;;;;;;;13.10;99.90;;;;;;5115932;27;19907;-76
2022/05/04 00:42:58;;;;;;;;;;;13.10;99.90;;;;;;5133831;27;20264;-77
2022/05/04 00:45:24;;;;;;;;;;;13.10;99.90;;;;;;5115701;27;19908;-76
2022/05/04 00:47:49;;;;;;;;;;;13.20;99.90;;;;;;5115126;27;19915;-77
2022/05/04 00:50:15;;;;;;;;;;;13.20;99.90;;;;;;5134323;27;19917;-77
2022/05/04 00:52:42;;;;;;;;;;;13.30;99.90;;;;;;5134297;27;19923;-76
2022/05/04 00:55:08;;;;;;;;;;;13.40;99.90;;;;;;5133704;27;19907;-76
2022/05/04 01:00:25;;;;;;;;;;;13.20;99.90;;;;;;5134214;27;19956;-77
2022/05/04 01:02:51;;;;;;;;;;;13.20;99.90;;;;;;5133541;27;19907;-76
2022/05/04 01:05:17;;;;;;;;;;;13.20;99.90;;;;;;5133921;27;20372;-77
2022/05/04 01:07:44;;;;;;;;;;;13.20;99.90;;;;;;5133961;27;20264;-77
2022/05/04 01:10:11;;;;;;;;;;;13.20;99.90;;;;;;5132670;27;20003;-77
2022/05/04 01:12:44;;;;;;;;;;;13.20;99.90;;;;;;5133925;27;19915;-77
2022/05/04 01:15:10;;;;;;;;;;;13.20;99.90;;;;;;5133477;27;20008;-76
2022/05/04 01:17:36;;;;;;;;;;;13.20;99.90;;;;;;5133954;27;19908;-77
2022/05/04 01:20:01;;;;;;;;;;;13.20;99.90;;;;;;5132896;27;19953;-77
2022/05/04 01:22:27;;;;;;;;;;;13.10;99.90;;;;;;5133996;27;20003;-77
2022/05/04 01:24:52;;;;;;;;;;;13.20;99.90;;;;;;5133377;28;19964;-76
2022/05/04 01:27:18;;;;;;;;;;;13.20;99.90;;;;;;5134076;28;19907;-76
2022/05/04 01:29:43;;;;;;;;;;;13.10;99.90;;;;;;5133636;28;20014;-77
2022/05/04 01:32:09;;;;;;;;;;;13.10;99.90;;;;;;5132889;28;19919;-76
2022/05/04 01:34:35;;;;;;;;;;;13.10;99.90;;;;;;5115531;28;20276;-76
2022/05/04 01:37:01;;;;;;;;;;;13.10;99.90;;;;;;5133228;28;19911;-76
2022/05/04 01:39:26;;;;;;;;;;;13.10;99.90;;;;;;5133590;28;19920;-76
2022/05/04 01:42:05;;;;;;;;;;;13.10;99.90;;;;;;5133065;28;19911;-76
2022/05/04 01:44:34;;;;;;;;;;;13.10;99.90;;;;;;5133727;28;20002;-76
2022/05/04 01:46:59;;;;;;;;;;;13.10;99.90;;;;;;5114701;28;19915;-76
2022/05/04 01:49:25;;;;;;;;;;;13.10;99.90;;;;;;5114746;28;19911;-76
2022/05/04 01:51:51;;;;;;;;;;;13.10;99.90;;;;;;5132676;28;19954;-76
2022/05/04 01:54:16;;;;;;;;;;;13.10;99.90;;;;;;5133366;28;19967;-76
2022/05/04 01:56:42;;;;;;;;;;;13.10;99.90;;;;;;5133421;28;19919;-76
2022/05/04 01:59:08;;;;;;;;;;;13.10;99.90;;;;;;5132904;28;19908;-76
2022/05/04 02:01:34;;;;;;;;;;;13.00;99.90;;;;;;5133560;28;19908;-76
2022/05/04 02:03:59;;;;;;;;;;;13.00;99.90;;;;;;5133037;28;19908;-76
2022/05/04 02:06:25;;;;;;;;;;;13.00;99.90;;;;;;5115347;28;19922;-76
2022/05/04 02:08:51;;;;;;;;;;;13.00;99.90;;;;;;5114627;28;19918;-76
2022/05/04 02:11:19;;;;;;;;;;;13.00;99.90;;;;;;5132684;28;20302;-76
2022/05/04 02:13:45;;;;;;;;;;;13.10;99.90;;;;;;5132770;28;20368;-76
2022/05/04 02:16:10;;;;;;;;;;;13.10;99.90;;;;;;5132831;28;19915;-76
2022/05/04 02:18:36;;;;;;;;;;;13.00;99.90;;;;;;5133462;28;19907;-76
2022/05/04 02:21:02;;;;;;;;;;;12.90;99.90;;;;;;5133934;27;19960;-76
2022/05/04 02:23:27;;;;;;;;;;;12.90;99.90;;;;;;5137288;27;20272;-76
2022/05/04 02:25:53;;;;;;;;;;;12.80;99.90;;;;;;5136642;27;19907;-76
2022/05/04 02:28:18;;;;;;;;;;;12.80;99.90;;;;;;5136833;27;19914;-76
2022/05/04 02:30:44;;;;;;;;;;;12.80;99.90;;;;;;5137036;27;19998;-76
2022/05/04 02:33:10;;;;;;;;;;;12.80;99.90;;;;;;5136173;27;19915;-76
2022/05/04 02:38:21;;;;;;;;;;;12.80;99.90;;;;;;5136671;27;20310;-77
2022/05/04 02:40:47;;;;;;;;;;;12.80;99.90;;;;;;5136706;27;19908;-77
2022/05/04 02:43:13;;;;;;;;;;;12.80;99.90;;;;;;5135820;27;19979;-77
2022/05/04 02:45:39;;;;;;;;;;;12.80;99.90;;;;;;5135815;27;19907;-77
2022/05/04 02:48:05;;;;;;;;;;;12.80;99.90;;;;;;5135565;27;20062;-77
2022/05/04 02:50:31;;;;;;;;;;;12.80;99.90;;;;;;5136035;27;19912;-77
2022/05/04 02:52:56;;;;;;;;;;;12.80;99.90;;;;;;5135893;27;20291;-77
2022/05/04 02:55:22;;;;;;;;;;;12.80;99.90;;;;;;5136337;27;19949;-77
2022/05/04 02:57:47;;;;;;;;;;;12.80;99.90;;;;;;5136166;27;20292;-77
2022/05/04 03:00:13;;;;;;;;;;;12.90;99.90;;;;;;5135808;27;19919;-77
2022/05/04 03:02:39;;;;;;;;;;;12.80;99.90;;;;;;5136384;27;19931;-77
2022/05/04 03:05:05;;;;;;;;;;;12.90;99.90;;;;;;5135629;27;19994;-77
2022/05/04 03:07:31;;;;;;;;;;;12.90;99.90;;;;;;5117870;27;19915;-77
2022/05/04 03:09:57;;;;;;;;;;;12.90;99.90;;;;;;5136166;27;20425;-76
2022/05/04 03:12:23;;;;;;;;;;;12.90;99.90;;;;;;5136163;27;20006;-77
2022/05/04 03:14:49;;;;;;;;;;;12.90;99.90;;;;;;5136198;27;20005;-77
2022/05/04 03:17:14;;;;;;;;;;;12.80;99.90;;;;;;5135548;27;19908;-77
2022/05/04 03:19:40;;;;;;;;;;;12.90;99.90;;;;;;5135797;27;19911;-77
2022/05/04 03:22:06;;;;;;;;;;;12.90;99.90;;;;;;5135853;27;19998;-77
2022/05/04 03:24:31;;;;;;;;;;;12.90;99.90;;;;;;5136254;27;19952;-77
2022/05/04 03:26:57;;;;;;;;;;;12.90;99.90;;;;;;5135488;27;19922;-76
2022/05/04 03:29:23;;;;;;;;;;;12.90;99.90;;;;;;5135947;27;19915;-77
2022/05/04 03:31:48;;;;;;;;;;;12.90;99.90;;;;;;5135222;27;19911;-77
2022/05/04 03:34:14;;;;;;;;;;;12.90;99.90;;;;;;5134261;27;19911;-77
2022/05/04 03:36:39;;;;;;;;;;;12.90;99.90;;;;;;5135592;27;19999;-77
2022/05/04 03:39:06;;;;;;;;;;;12.90;99.90;;;;;;5135253;27;20245;-77
2022/05/04 03:41:31;;;;;;;;;;;12.90;99.90;;;;;;5135071;27;19914;-76
2022/05/04 03:43:57;;;;;;;;;;;12.90;99.90;;;;;;5135523;27;19907;-77
2022/05/04 03:46:24;;;;;;;;;;;12.80;99.90;;;;;;5135202;27;19907;-77
2022/05/04 03:48:55;;;;;;;;;;;12.90;99.90;;;;;;5135563;27;19914;-77
2022/05/04 03:51:21;;;;;;;;;;;12.80;99.90;;;;;;5135055;27;20403;-76
2022/05/04 03:53:47;;;;;;;;;;;12.80;99.90;;;;;;5135378;27;19911;-77
2022/05/04 03:56:13;;;;;;;;;;;12.80;99.90;;;;;;5134529;27;19919;-77
2022/05/04 03:58:38;;;;;;;;;;;12.80;99.90;;;;;;5135398;27;19954;-77
2022/05/04 04:01:05;;;;;;;;;;;12.80;99.90;;;;;;5134763;27;19915;-77
2022/05/04 04:03:31;;;;;;;;;;;12.70;99.90;;;;;;5135037;27;19911;-77
2022/05/04 04:05:56;;;;;;;;;;;12.70;99.90;;;;;;5116710;27;20452;-77
2022/05/04 04:08:22;;;;;;;;;;;12.70;99.90;;;;;;5134667;27;19943;-77
2022/05/04 04:10:48;;;;;;;;;;;12.70;99.90;;;;;;5135075;27;20365;-77
2022/05/04 04:13:15;;;;;;;;;;;12.70;99.90;;;;;;5134310;27;19926;-77
2022/05/04 04:15:40;;;;;;;;;;;12.70;99.90;;;;;;5134836;27;19912;-77
2022/05/04 04:18:06;;;;;;;;;;;12.70;99.90;;;;;;5134438;27;19907;-77
2022/05/04 04:23:16;;;;;;;;;;;12.70;99.90;;;;;;5134064;27;19914;-76
2022/05/04 04:25:41;;;;;;;;;;;12.70;99.90;;;;;;5116385;27;19907;-76
2022/05/04 04:28:07;;;;;;;;;;;12.70;99.90;;;;;;5134239;27;19907;-76
2022/05/04 04:30:32;;;;;;;;;;;12.70;99.90;;;;;;5134877;27;20016;-76
2022/05/04 04:32:58;;;;;;;;;;;12.70;99.90;;;;;;5134472;27;19922;-76
2022/05/04 04:35:23;;;;;;;;;;;12.70;99.90;;;;;;5133838;27;19975;-76
2022/05/04 04:37:49;;;;;;;;;;;12.70;99.90;;;;;;5134355;27;19914;-76
2022/05/04 04:40:15;;;;;;;;;;;12.70;99.90;;;;;;5133723;27;20422;-75
2022/05/04 04:42:41;;;;;;;;;;;12.70;99.90;;;;;;5134306;27;20310;-76
2022/05/04 04:45:06;;;;;;;;;;;12.70;99.90;;;;;;5133672;27;19946;-76
2022/05/04 04:47:32;;;;;;;;;;;12.60;99.90;;;;;;5134078;27;19911;-76
2022/05/04 04:49:58;;;;;;;;;;;12.60;99.90;;;;;;5134794;27;19908;-75
2022/05/04 04:52:24;;;;;;;;;;;12.60;99.90;;;;;;5114982;27;20296;-76
2022/05/04 04:54:50;;;;;;;;;;;12.70;99.90;;;;;;5134316;27;19939;-76
2022/05/04 04:57:16;;;;;;;;;;;12.70;99.90;;;;;;5133233;27;19971;-76
2022/05/04 04:59:42;;;;;;;;;;;12.70;99.90;;;;;;5134048;27;20329;-77
2022/05/04 05:02:08;;;;;;;;;;;12.70;99.90;;;;;;5133502;27;19932;-76
2022/05/04 05:04:34;;;;;;;;;;;12.60;99.90;;;;;;5133959;27;19912;-76
2022/05/04 05:06:59;;;;;;;;;;;12.70;99.90;;;;;;5134474;27;20352;-76
2022/05/04 05:09:25;;;;;;;;;;;12.70;99.90;;;;;;5133230;27;19915;-76
2022/05/04 05:11:50;;;;;;;;;;;12.70;99.90;;;;;;5133963;27;19918;-75
2022/05/04 05:17:00;;;;;;;;;;;12.70;99.90;;;;;;5133905;27;19913;-76
2022/05/04 05:19:26;;;;;;;;;;;12.70;99.90;;;;;;5133730;27;19911;-76
2022/05/04 05:21:51;;;;;;;;;;;12.70;99.90;;;;;;5133868;27;19908;-75
2022/05/04 05:24:17;;;;;;;;;;;12.70;99.90;;;;;;5133284;27;19972;-75
2022/05/04 05:26:42;;;;;;;;;;;12.70;99.90;;;;;;5133894;28;20375;-76
2022/05/04 05:29:08;;;;;;;;;;;12.70;99.90;;;;;;5132826;28;19938;-76
2022/05/04 05:31:34;;;;;;;;;;;12.70;99.90;;;;;;5133742;28;19976;-76
2022/05/04 05:33:59;;;;;;;;;;;12.70;99.90;;;;;;5133320;28;19915;-76
2022/05/04 05:36:25;;;;;;;;;;;12.60;99.90;;;;;;5133070;28;20554;-76
2022/05/04 05:38:50;;;;;;;;;;;12.70;99.90;;;;;;5133382;28;19939;-76
2022/05/04 05:41:16;;;;;;;;;;;12.80;99.90;;;;;;5133424;28;19933;-76
2022/05/04 05:43:41;;;;;;;;;;;12.80;99.90;;;;;;5133690;28;19907;-76
2022/05/04 05:46:07;;;;;;;;;;;12.80;99.90;;;;;;5132856;28;19908;-75
2022/05/04 05:48:33;;;;;;;;;;;12.80;99.90;;;;;;5133339;28;19907;-76
2022/05/04 05:51:03;;;;;;;;;;;12.90;99.90;;;;;;5133375;28;19908;-76
2022/05/04 05:53:29;;;;;;;;;;;12.90;99.90;;;;;;5132920;28;19952;-76
2022/05/04 05:55:55;;;;;;;;;;;13.00;99.90;;;;;;5134616;27;19911;-75
2022/05/04 05:58:20;;;;;;;;;;;13.00;99.90;;;;;;5136945;27;20344;-75
2022/05/04 06:00:46;;;;;;;;;;;13.00;99.90;;;;;;5137368;27;20302;-75
2022/05/04 06:03:13;;;;;;;;;;;13.10;99.90;;;;;;5137033;27;19914;-75
2022/05/04 06:05:39;;;;;;;;;;;13.10;99.90;;;;;;5137461;27;19908;-75
2022/05/04 06:08:05;;;;;;;;;;;13.10;99.90;;;;;;5137485;27;19907;-76
2022/05/04 06:10:30;;;;;;;;;;;13.10;99.90;;;;;;5136147;27;19933;-76
2022/05/04 06:12:56;;;;;;;;;;;13.10;99.90;;;;;;5137052;27;19915;-76
2022/05/04 06:15:22;;;;;;;;;;;13.10;99.90;;;;;;5118030;27;19973;-76
2022/05/04 06:17:47;;;;;;;;;;;13.00;99.90;;;;;;5136681;27;19968;-76
2022/05/04 06:20:13;;;;;;;;;;;13.10;99.90;;;;;;5136302;27;20241;-75
2022/05/04 06:22:38;;;;;;;;;;;13.10;99.90;;;;;;5136928;27;20272;-76
2022/05/04 06:25:04;;;;;;;;;;;13.20;99.90;;;;;;5123556;27;19911;-76
2022/05/04 06:27:30;;;;;;;;;;;13.20;99.90;;;;;;5146072;27;19915;-75
2022/05/04 06:35:25;;;;;;;;;;;13.40;99.90;;;;;;5156599;27;19921;-76
2022/05/04 06:37:50;;;;;;;;;;;13.50;99.90;;;;;;5157288;27;19915;-76
2022/05/04 06:40:16;;;;;;;;;;;13.60;99.90;;;;;;5157772;27;20266;-76
2022/05/04 06:42:42;;;;;;;;;;;13.60;99.90;;;;;;5157695;27;19908;-76
2022/05/04 06:45:07;;;;;;;;;;;13.60;99.90;;;;;;5157232;27;19911;-76
2022/05/04 06:47:33;;;;;;;;;;;13.60;99.90;;;;;;5156418;27;19914;-76
2022/05/04 06:49:59;;;;;;;;;;;13.70;99.90;;;;;;5150344;27;19979;-77
2022/05/04 06:52:25;;;;;;;;;;;13.70;99.90;;;;;;5147526;27;19920;-77
2022/05/04 06:54:51;;;;;;;;;;;13.70;99.90;;;;;;5145477;27;19911;-77
2022/05/04 06:57:17;;;;;;;;;;;13.90;99.90;;;;;;5150975;27;19941;-77
2022/05/04 06:59:43;;;;;;;;;;;14.10;99.90;;;;;;5157091;27;19956;-76
2022/05/04 07:02:08;;;;;;;;;;;14.00;99.90;;;;;;5145054;27;19911;-76
2022/05/04 07:04:34;;;;;;;;;;;14.00;99.90;;;;;;5135675;27;19908;-76
2022/05/04 07:06:59;;;;;;;;;;;14.00;99.90;;;;;;5135083;27;19950;-76
2022/05/04 07:09:25;;;;;;;;;;;13.90;99.90;;;;;;5135344;27;19911;-76
2022/05/04 07:11:50;;;;;;;;;;;13.90;99.90;;;;;;5135658;27;19912;-76
2022/05/04 07:14:16;;;;;;;;;;;14.00;99.90;;;;;;5135352;27;19908;-75
2022/05/04 07:16:42;;;;;;;;;;;14.10;99.90;;;;;;5135652;27;19911;-76
2022/05/04 07:19:07;;;;;;;;;;;14.20;99.90;;;;;;5136022;27;19915;-76
2022/05/04 07:21:33;;;;;;;;;;;14.30;99.90;;;;;;5134869;27;19923;-76
2022/05/04 07:23:58;;;;;;;;;;;14.20;99.90;;;;;;5135929;27;19952;-76
2022/05/04 07:26:24;;;;;;;;;;;14.10;99.90;;;;;;5134955;27;19931;-75
2022/05/04 07:28:49;;;;;;;;;;;14.10;99.90;;;;;;5135778;27;19914;-76
2022/05/04 07:31:15;;;;;;;;;;;14.20;99.90;;;;;;5140691;27;19986;-75
2022/05/04 07:33:40;;;;;;;;;;;14.30;99.90;;;;;;5152206;27;19919;-76
2022/05/04 07:36:06;;;;;;;;;;;14.20;99.90;;;;;;5155360;27;19907;-76
2022/05/04 07:38:31;;;;;;;;;;;14.10;99.90;;;;;;5155529;27;19907;-75
2022/05/04 07:43:41;;;;;;;;;;;14.00;99.90;;;;;;5155637;27;19914;-76
2022/05/04 07:46:07;;;;;;;;;;;13.80;99.90;;;;;;5155215;27;19907;-76
2022/05/04 07:48:32;;;;;;;;;;;13.80;99.90;;;;;;5136463;27;19903;-75
2022/05/04 07:50:58;;;;;;;;;;;13.70;99.90;;;;;;5153086;27;20313;-76
2022/05/04 07:53:23;;;;;;;;;;;13.80;99.90;;;;;;5154363;27;19922;-75
2022/05/04 07:55:49;;;;;;;;;;;13.80;99.90;;;;;;5155637;27;19913;-76
2022/05/04 07:58:15;;;;;;;;;;;13.70;99.90;;;;;;5154652;27;19907;-77
2022/05/04 08:06:08;;;;;;;;;;;13.60;99.90;;;;;;5142760;27;19918;-76
2022/05/04 08:08:34;;;;;;;;;;;13.60;99.90;;;;;;5139032;27;19912;-76
2022/05/04 08:11:00;;;;;;;;;;;13.60;99.90;;;;;;5133938;27;20355;-76
2022/05/04 08:13:25;;;;;;;;;;;13.80;99.90;;;;;;5132028;27;19919;-76
2022/05/04 08:15:51;;;;;;;;;;;13.90;99.90;;;;;;5153044;27;19907;-76
2022/05/04 08:18:17;;;;;;;;;;;13.80;99.90;;;;;;5129720;27;19911;-76
2022/05/04 08:20:42;;;;;;;;;;;13.80;99.90;;;;;;5154093;27;19907;-76
2022/05/04 08:23:09;;;;;;;;;;;13.80;99.90;;;;;;5154988;27;19926;-76
2022/05/04 08:25:35;;;;;;;;;;;13.80;99.90;;;;;;5154367;27;20575;-76
2022/05/04 08:28:01;;;;;;;;;;;13.80;99.90;;;;;;5155030;27;20383;-77
2022/05/04 08:30:27;;;;;;;;;;;13.80;99.90;;;;;;5152773;27;19935;-76
2022/05/04 08:32:53;;;;;;;;;;;13.80;99.90;;;;;;5152833;27;19961;-76
2022/05/04 08:35:19;;;;;;;;;;;13.80;99.90;;;;;;5135083;27;19907;-76
2022/05/04 08:37:44;;;;;;;;;;;13.70;99.90;;;;;;5153598;27;19911;-76
2022/05/04 08:40:10;;;;;;;;;;;13.70;99.90;;;;;;5153822;27;19914;-76
2022/05/04 08:42:41;;;;;;;;;;;13.70;99.90;;;;;;5153750;27;19907;-76
2022/05/04 08:45:10;;;;;;;;;;;13.60;99.90;;;;;;5135175;27;19954;-76
2022/05/04 08:47:37;;;;;;;;;;;13.80;99.90;;;;;;5153946;27;19907;-76
2022/05/04 08:50:07;;;;;;;;;;;13.70;99.90;;;;;;5135918;27;19949;-76
2022/05/04 08:52:33;;;;;;;;;;;13.90;99.90;;;;;;5153838;27;19915;-76
2022/05/04 08:54:59;;;;;;;;;;;13.90;99.90;;;;;;5154494;27;20364;-75
2022/05/04 08:57:24;;;;;;;;;;;13.90;99.90;;;;;;5152938;27;19919;-76
2022/05/04 08:59:50;;;;;;;;;;;14.10;99.90;;;;;;5154252;27;19958;-76
2022/05/04 09:02:16;;;;;;;;;;;14.20;99.90;;;;;;5153990;27;19907;-76
2022/05/04 09:04:42;;;;;;;;;;;14.30;99.90;;;;;;5152928;27;19973;-76
2022/05/04 09:07:23;;;;;;;;;;;14.40;99.90;;;;;;5154526;27;19913;-76
2022/05/04 09:09:50;;;;;;;;;;;14.40;99.90;;;;;;5153902;27;19911;-77
2022/05/04 09:12:17;;;;;;;;;;;14.20;99.90;;;;;;5153964;27;20007;-76
2022/05/04 09:14:43;;;;;;;;;;;14.20;99.90;;;;;;5154544;27;20001;-76
2022/05/04 09:17:09;;;;;;;;;;;14.20;99.90;;;;;;5154314;27;19907;-76
2022/05/04 09:19:35;;;;;;;;;;;14.20;99.90;;;;;;5153595;27;19989;-76
2022/05/04 09:22:00;;;;;;;;;;;14.20;99.90;;;;;;5154074;27;19957;-76
2022/05/04 09:24:27;;;;;;;;;;;14.10;99.90;;;;;;5153543;27;19907;-76
2022/05/04 09:26:54;;;;;;;;;;;14.10;99.90;;;;;;5154258;27;19913;-77
2022/05/04 09:29:20;;;;;;;;;;;14.20;99.90;;;;;;5152933;27;19958;-76
2022/05/04 09:31:46;;;;;;;;;;;14.30;99.90;;;;;;5153338;27;19907;-77
2022/05/04 09:34:12;;;;;;;;;;;14.40;99.90;;;;;;5154079;27;20495;-76
2022/05/04 09:44:53;;;;;;;;;;;14.50;99.90;;;;;;5153080;27;19911;-77
2022/05/04 09:45:23;;;;;;;;;;;14.70;99.90;;;;;;5154292;27;20333;-76
2022/05/04 09:47:49;;;;;;;;;;;14.80;99.90;;;;;;5149602;27;20363;-76
2022/05/04 09:50:15;;;;;;;;;;;14.80;99.90;;;;;;5153422;27;19907;-76
2022/05/04 09:52:42;;;;;;;;;;;14.90;99.90;;;;;;5152964;27;19920;-76
2022/05/04 09:55:14;;;;;;;;;;;14.90;99.90;;;;;;5153649;27;19930;-76
2022/05/04 09:57:42;;;;;;;;;;;15.00;99.90;;;;;;5152920;27;20533;-77
2022/05/04 10:00:08;;;;;;;;;;;14.90;99.90;;;;;;5154023;27;19908;-76
2022/05/04 10:02:33;;;;;;;;;;;15.00;99.90;;;;;;5153726;27;19941;-76
2022/05/04 10:05:00;;;;;;;;;;;14.90;99.90;;;;;;5154017;27;20405;-76
2022/05/04 10:07:26;;;;;;;;;;;15.10;99.90;;;;;;5153110;27;19912;-76
2022/05/04 10:09:52;;;;;;;;;;;15.00;99.90;;;;;;5153368;27;19951;-76
2022/05/04 10:12:19;;;;;;;;;;;14.90;99.90;;;;;;5153639;27;19951;-76
2022/05/04 10:14:45;;;;;;;;;;;15.00;99.90;;;;;;5153156;27;19913;-76
2022/05/04 10:17:29;;;;;;;;;;;15.00;99.90;;;;;;5153512;27;19911;-77
2022/05/04 10:20:11;;;;;;;;;;;15.00;99.90;;;;;;5153752;27;19961;-77
2022/05/04 10:22:44;;;;;;;;;;;15.00;99.90;;;;;;5153141;27;19930;-76
2022/05/04 10:25:09;;;;;;;;;;;15.00;99.90;;;;;;5153374;27;19911;-76
2022/05/04 10:27:42;;;;;;;;;;;15.10;99.90;;;;;;5152972;27;20012;-76
2022/05/04 10:32:56;;;;;;;;;;;15.20;99.90;;;;;;5153176;27;19923;-76
2022/05/04 10:35:40;;;;;;;;;;;15.50;99.90;;;;;;5152655;27;19930;-76
2022/05/04 10:38:25;;;;;;;;;;;15.50;99.90;;;;;;5127511;27;19960;-76
2022/05/04 10:40:58;;;;;;;;;;;15.50;99.90;;;;;;5147073;27;20002;-76
2022/05/04 10:43:45;;;;;;;;;;;15.70;99.90;;;;;;5156185;27;19907;-76
2022/05/04 10:46:18;;;;;;;;;;;15.90;99.90;;;;;;5156381;27;19948;-76
2022/05/04 10:48:50;;;;;;;;;;;15.80;99.90;;;;;;5156039;27;19911;-76
2022/05/04 10:51:19;;;;;;;;;;;15.90;99.90;;;;;;5156528;27;19907;-76
2022/05/04 10:53:48;;;;;;;;;;;15.80;99.90;;;;;;5155270;27;19922;-76
2022/05/04 10:56:15;;;;;;;;;;;15.80;99.90;;;;;;5155844;27;19919;-76
2022/05/04 10:58:44;;;;;;;;;;;15.90;99.90;;;;;;5155941;27;19915;-77
2022/05/04 11:01:12;;;;;;;;;;;16.00;99.90;;;;;;5156015;27;19914;-76
2022/05/04 11:03:38;;;;;;;;;;;15.90;99.90;;;;;;5155531;27;19932;-76
2022/05/04 11:06:10;;;;;;;;;;;16.00;99.90;;;;;;5155862;27;20002;-76
2022/05/04 11:08:36;;;;;;;;;;;16.00;99.90;;;;;;5155742;27;20359;-76
2022/05/04 11:11:02;;;;;;;;;;;16.10;99.90;;;;;;5156034;27;20344;-76
2022/05/04 11:13:29;;;;;;;;;;;16.30;99.90;;;;;;5154879;27;20317;-76
2022/05/04 11:15:57;;;;;;;;;;;16.60;99.90;;;;;;5154876;27;20360;-76
2022/05/04 11:18:24;;;;;;;;;;;16.70;99.90;;;;;;5154716;27;19915;-76
2022/05/04 11:20:50;;;;;;;;;;;16.70;99.90;;;;;;5156298;27;19907;-76
2022/05/04 11:23:25;;;;;;;;;;;16.60;99.90;;;;;;5155373;27;19907;-76
2022/05/04 11:25:51;;;;;;;;;;;16.40;99.90;;;;;;5156066;27;19911;-77
2022/05/04 11:28:22;;;;;;;;;;;16.30;99.90;;;;;;5155594;27;19914;-76
2022/05/04 11:30:48;;;;;;;;;;;16.20;99.90;;;;;;5155229;27;19907;-77
2022/05/04 11:33:14;;;;;;;;;;;16.10;99.90;;;;;;5155414;27;19918;-77
2022/05/04 11:35:41;;;;;;;;;;;15.90;99.90;;;;;;5154782;27;19907;-76
2022/05/04 11:38:07;;;;;;;;;;;15.90;99.90;;;;;;5155260;27;19976;-76
2022/05/04 11:40:32;;;;;;;;;;;16.20;99.90;;;;;;5154340;27;20352;-76
2022/05/04 11:42:58;;;;;;;;;;;16.50;99.90;;;;;;5135681;27;19907;-76
2022/05/04 11:45:24;;;;;;;;;;;16.40;99.90;;;;;;5154364;27;20016;-76
2022/05/04 11:47:51;;;;;;;;;;;16.50;99.90;;;;;;5155256;27;20370;-76
2022/05/04 11:50:17;;;;;;;;;;;16.50;99.90;;;;;;5154186;27;19971;-76
2022/05/04 11:52:44;;;;;;;;;;;16.50;99.90;;;;;;5154182;27;20548;-76
2022/05/04 11:55:10;;;;;;;;;;;16.80;99.90;;;;;;5136267;27;19954;-76
2022/05/04 11:57:41;;;;;;;;;;;17.10;99.90;;;;;;5155019;27;19958;-77
2022/05/04 12:00:16;;;;;;;;;;;16.90;99.90;;;;;;5136296;27;19907;-76
2022/05/04 12:02:42;;;;;;;;;;;16.70;99.90;;;;;;5154023;27;20006;-77
2022/05/04 12:05:08;;;;;;;;;;;16.40;99.90;;;;;;5154367;27;19994;-76
2022/05/04 12:07:34;;;;;;;;;;;16.50;99.90;;;;;;5153634;27;19998;-77
2022/05/04 12:10:00;;;;;;;;;;;16.50;99.90;;;;;;5155025;27;19907;-77
2022/05/04 12:12:25;;;;;;;;;;;16.50;99.90;;;;;;5154619;27;19918;-76
2022/05/04 12:14:53;;;;;;;;;;;16.50;99.90;;;;;;5154950;27;19947;-77
2022/05/04 12:17:25;;;;;;;;;;;16.40;99.90;;;;;;5155091;27;19916;-76
2022/05/04 12:19:51;;;;;;;;;;;16.30;99.90;;;;;;5154961;27;20287;-77
2022/05/04 12:22:18;;;;;;;;;;;16.30;99.90;;;;;;5155280;27;19959;-77
2022/05/04 12:24:44;;;;;;;;;;;16.30;99.90;;;;;;5154547;27;19970;-77
2022/05/04 12:27:09;;;;;;;;;;;16.20;99.90;;;;;;5155576;27;19986;-77
2022/05/04 12:35:04;;;;;;;;;;;16.60;99.90;;;;;;5155086;27;19918;-77
2022/05/04 12:37:30;;;;;;;;;;;16.70;99.90;;;;;;5153763;27;19908;-77
2022/05/04 12:39:56;;;;;;;;;;;16.80;99.90;;;;;;5154456;27;20267;-77
2022/05/04 12:42:22;;;;;;;;;;;16.90;99.90;;;;;;5154796;27;19915;-77
2022/05/04 12:44:48;;;;;;;;;;;16.90;99.90;;;;;;5154276;27;19907;-77
2022/05/04 12:47:14;;;;;;;;;;;16.80;99.90;;;;;;5154261;27;19925;-77
2022/05/04 12:49:40;;;;;;;;;;;16.70;99.90;;;;;;5154284;27;19994;-77
2022/05/04 12:52:06;;;;;;;;;;;16.90;99.90;;;;;;5154675;27;19907;-77
2022/05/04 12:54:32;;;;;;;;;;;17.00;99.90;;;;;;5153936;27;20018;-77
2022/05/04 12:56:58;;;;;;;;;;;17.00;99.90;;;;;;5154261;27;19954;-77
2022/05/04 12:59:23;;;;;;;;;;;16.80;99.90;;;;;;5154593;27;19961;-77
2022/05/04 13:01:49;;;;;;;;;;;16.80;99.90;;;;;;5154638;27;19907;-76
2022/05/04 13:04:15;;;;;;;;;;;16.70;99.90;;;;;;5154393;27;19982;-77
2022/05/04 13:06:41;;;;;;;;;;;16.70;99.90;;;;;;5152357;27;19911;-77
2022/05/04 13:09:07;;;;;;;;;;;16.90;99.90;;;;;;5154473;27;19907;-77
2022/05/04 13:11:33;;;;;;;;;;;17.00;99.90;;;;;;5153455;27;19913;-77
2022/05/04 13:13:59;;;;;;;;;;;16.90;99.90;;;;;;5154226;27;19919;-76
2022/05/04 13:16:24;;;;;;;;;;;17.10;99.90;;;;;;5154059;27;19907;-77
2022/05/04 13:18:50;;;;;;;;;;;17.10;99.90;;;;;;5154051;27;19911;-77
2022/05/04 13:21:15;;;;;;;;;;;17.10;99.90;;;;;;5151543;27;19991;-77
2022/05/04 13:23:42;;;;;;;;;;;17.20;99.90;;;;;;5123898;27;20371;-77
2022/05/04 13:26:12;;;;;;;;;;;17.20;99.90;;;;;;5147382;27;19908;-76
2022/05/04 13:28:38;;;;;;;;;;;17.10;99.90;;;;;;5153195;27;19922;-77
2022/05/04 13:31:04;;;;;;;;;;;17.10;99.90;;;;;;5153684;27;20276;-76
2022/05/04 13:33:31;;;;;;;;;;;17.20;99.90;;;;;;5153376;27;19915;-75
2022/05/04 13:35:57;;;;;;;;;;;17.30;99.90;;;;;;5154392;27;19907;-77
2022/05/04 13:38:23;;;;;;;;;;;17.30;99.90;;;;;;5153785;27;19911;-76
2022/05/04 13:40:49;;;;;;;;;;;17.30;99.90;;;;;;5153293;27;19918;-77
2022/05/04 13:43:15;;;;;;;;;;;17.40;99.90;;;;;;5135673;27;20009;-77
2022/05/04 13:45:40;;;;;;;;;;;17.40;99.90;;;;;;5153256;27;19907;-77
2022/05/04 13:48:06;;;;;;;;;;;17.30;99.90;;;;;;5154173;27;19929;-76
2022/05/04 13:53:16;;;;;;;;;;;17.30;99.90;;;;;;5141348;27;19996;-77
2022/05/04 13:55:42;;;;;;;;;;;17.30;99.90;;;;;;5143435;27;19907;-77
2022/05/04 13:58:08;;;;;;;;;;;17.20;99.90;;;;;;5135890;27;19919;-77
2022/05/04 14:00:33;;;;;;;;;;;17.10;99.90;;;;;;5131754;27;19911;-77
2022/05/04 14:02:59;;;;;;;;;;;17.10;99.90;;;;;;5130458;27;19907;-77
2022/05/04 14:05:25;;;;;;;;;;;17.10;99.90;;;;;;5132403;27;20276;-77
2022/05/04 14:07:52;;;;;;;;;;;17.10;99.90;;;;;;5142497;27;19917;-77
2022/05/04 14:10:18;;;;;;;;;;;17.20;99.90;;;;;;5140613;27;19907;-78
2022/05/04 14:12:43;;;;;;;;;;;17.10;99.90;;;;;;5149975;27;19938;-77
2022/05/04 14:15:09;;;;;;;;;;;17.10;99.90;;;;;;5153284;27;19915;-77
2022/05/04 14:17:34;;;;;;;;;;;17.10;99.90;;;;;;5155766;27;19943;-77
2022/05/04 14:20:00;;;;;;;;;;;17.20;99.90;;;;;;5157685;27;19911;-77
2022/05/04 14:22:26;;;;;;;;;;;17.30;99.90;;;;;;5157496;27;19911;-77
2022/05/04 14:24:52;;;;;;;;;;;17.40;99.90;;;;;;5157180;27;20279;-77
2022/05/04 14:27:17;;;;;;;;;;;17.60;99.90;;;;;;5157623;27;19907;-78
2022/05/04 14:29:43;;;;;;;;;;;17.70;99.90;;;;;;5130006;27;19960;-77
2022/05/04 14:32:08;;;;;;;;;;;17.70;99.90;;;;;;5150583;27;19911;-78
2022/05/04 14:34:34;;;;;;;;;;;17.90;99.90;;;;;;5143989;27;19908;-77
2022/05/04 14:37:00;;;;;;;;;;;17.80;99.90;;;;;;5149544;27;19908;-77
2022/05/04 14:39:25;;;;;;;;;;;17.90;99.90;;;;;;5156586;27;19911;-77
2022/05/04 14:41:51;;;;;;;;;;;18.10;99.90;;;;;;5150159;27;20744;-77
2022/05/04 14:44:17;;;;;;;;;;;18.20;99.90;;;;;;5146140;27;19960;-78
2022/05/04 14:46:43;;;;;;;;;;;18.20;99.90;;;;;;5127067;27;19907;-77
2022/05/04 14:49:08;;;;;;;;;;;18.00;99.90;;;;;;5155889;27;19907;-78
2022/05/04 14:51:34;;;;;;;;;;;18.10;99.90;;;;;;5156562;27;20364;-77
2022/05/04 14:53:59;;;;;;;;;;;18.20;99.90;;;;;;5156695;27;19962;-77